Time;durP1;ratioP1;P1;durP2;ratioP2;P2;SDS_P1;SDS_P2;PMS_P1;PMS_P2;Temp;Humidity;BMP_temperature;BMP_pressure;BME280_temperature;BME280_humidity;BME280_pressure;Samples;Min_cycle;Max_cycle;Signal;HPM_P1;HPM_P2
2022/08/11 00:00:50;;;;;;;;;;;;;;;28.38;32.95;94515.03;5023130;28;7138;-62
2022/08/11 00:03:19;;;;;;;;;;;;;;;28.37;32.94;94516.31;5031673;28;7245;-62
2022/08/11 00:06:26;;;;;;;;;;;;;;;28.37;32.97;94510.78;5039855;28;7162;-62
2022/08/11 00:08:57;;;;;;;;;;;;;;;28.34;33.30;94514.59;5025113;28;8860;-62
2022/08/11 00:11:54;;;;;;;;;;;;;;;28.33;33.22;94513.09;5025615;28;8734;-62
2022/08/11 00:14:28;;;;;;;;;;;;;;;28.31;33.04;94515.66;4973395;28;8844;-62
2022/08/11 00:17:25;;;;;;;;;;;;;;;28.32;33.23;94512.34;4975389;28;7008;-62
2022/08/11 00:20:07;;;;;;;;;;;;;;;28.31;33.18;94518.41;4987787;28;7133;-62
2022/08/11 00:22:59;;;;;;;;;;;;;;;28.30;33.13;94519.69;4990536;28;6930;-62
2022/08/11 00:26:03;;;;;;;;;;;;;;;28.29;33.06;94523.72;4970457;28;7284;-62
2022/08/11 00:28:40;;;;;;;;;;;;;;;28.28;32.64;94519.47;4970424;28;7163;-62
2022/08/11 00:31:19;;;;;;;;;;;;;;;28.26;33.11;94513.72;4975349;28;7194;-62
2022/08/11 00:33:52;;;;;;;;;;;;;;;28.24;33.21;94517.00;4989594;28;8230;-62
2022/08/11 00:36:26;;;;;;;;;;;;;;;28.22;32.77;94516.03;4973530;28;7321;-62
2022/08/11 00:39:09;;;;;;;;;;;;;;;28.20;32.95;94521.34;4991010;28;7020;-62
2022/08/11 00:41:57;;;;;;;;;;;;;;;28.17;32.96;94522.38;4973777;28;7387;-62
2022/08/11 00:45:06;;;;;;;;;;;;;;;28.15;33.15;94522.91;4989678;28;7453;-62
2022/08/11 00:48:14;;;;;;;;;;;;;;;28.13;33.20;94521.94;4973749;28;9010;-62
2022/08/11 00:50:45;;;;;;;;;;;;;;;28.11;33.05;94525.25;5008974;28;7346;-62
2022/08/11 00:53:27;;;;;;;;;;;;;;;28.10;33.07;94526.50;5030464;28;7308;-62
2022/08/11 00:56:53;;;;;;;;;;;;;;;28.09;32.84;94527.03;5037787;28;7834;-62
2022/08/11 00:59:49;;;;;;;;;;;;;;;28.07;33.23;94521.28;5022399;28;9580;-62
2022/08/11 01:02:20;;;;;;;;;;;;;;;28.05;32.95;94527.34;5022193;28;9718;-62
2022/08/11 01:05:17;;;;;;;;;;;;;;;28.04;33.08;94520.31;5039946;28;7131;-62
2022/08/11 01:08:19;;;;;;;;;;;;;;;28.03;33.05;94516.06;4953186;28;7367;-62
2022/08/11 01:11:25;;;;;;;;;;;;;;;28.01;33.12;94513.06;4945962;28;7228;-62
2022/08/11 01:14:34;;;;;;;;;;;;;;;28.00;32.85;94517.09;4950697;28;7051;-62
2022/08/11 01:17:54;;;;;;;;;;;;;;;27.98;33.02;94510.59;4949257;28;9409;-62
2022/08/11 01:20:29;;;;;;;;;;;;;;;27.97;32.77;94514.63;4961908;28;9717;-62
2022/08/11 01:22:57;;;;;;;;;;;;;;;27.97;33.00;94517.38;4967594;28;9064;-62
2022/08/11 01:25:31;;;;;;;;;;;;;;;27.97;33.05;94511.84;4967547;28;8947;-62
2022/08/11 01:28:19;;;;;;;;;;;;;;;27.95;33.12;94515.13;4951980;28;7676;-62
2022/08/11 01:31:21;;;;;;;;;;;;;;;27.95;32.84;94519.91;4950609;28;7055;-62
2022/08/11 01:33:57;;;;;;;;;;;;;;;27.93;32.70;94514.16;4964239;28;7890;-62
2022/08/11 01:37:17;;;;;;;;;;;;;;;27.91;32.85;94505.63;4962518;28;7079;-62
2022/08/11 01:40:09;;;;;;;;;;;;;;;27.90;32.93;94510.44;4946589;28;7229;-62
2022/08/11 01:46:08;;;;;;;;;;;;;;;27.88;33.16;94512.22;4953212;28;8756;-62
2022/08/11 01:48:48;;;;;;;;;;;;;;;27.87;33.07;94510.72;4942418;28;7199;-62
2022/08/11 01:51:34;;;;;;;;;;;;;;;27.86;32.54;94506.47;4946032;28;7314;-62
2022/08/11 01:54:19;;;;;;;;;;;;;;;27.84;32.66;94511.78;4958019;28;7408;-62
2022/08/11 01:57:39;;;;;;;;;;;;;;;27.85;32.68;94507.72;4960287;28;7667;-62
2022/08/11 02:00:36;;;;;;;;;;;;;;;27.83;32.96;94513.78;4958194;28;7194;-62
2022/08/11 02:03:48;;;;;;;;;;;;;;;27.82;32.96;94514.31;4944287;28;7036;-62
2022/08/11 02:07:03;;;;;;;;;;;;;;;27.79;33.16;94516.09;4945992;28;7277;-62
2022/08/11 02:09:47;;;;;;;;;;;;;;;27.79;33.22;94507.81;4952987;28;7073;-62
2022/08/11 02:12:56;;;;;;;;;;;;;;;27.78;32.79;94502.78;4956884;28;9171;-62
2022/08/11 02:15:44;;;;;;;;;;;;;;;27.76;32.65;94500.56;4952928;28;7291;-62
2022/08/11 02:18:20;;;;;;;;;;;;;;;27.75;32.78;94492.78;4945511;28;7359;-62
2022/08/11 02:24:05;;;;;;;;;;;;;;;27.72;32.79;94500.13;5037350;28;9087;-62
2022/08/11 02:27:22;;;;;;;;;;;;;;;27.71;32.67;94490.31;5023152;28;9500;-62
2022/08/11 02:30:14;;;;;;;;;;;;;;;27.70;32.69;94494.38;4952279;28;7535;-62
2022/08/11 02:35:57;;;;;;;;;;;;;;;27.67;32.79;94489.13;4966456;28;8771;-62
2022/08/11 02:38:28;;;;;;;;;;;;;;;27.66;32.70;94482.09;4968481;28;7051;-62
2022/08/11 02:44:27;;;;;;;;;;;;;;;27.63;32.74;94492.94;4968367;28;7739;-62
2022/08/11 02:46:53;;;;;;;;;;;;;;;27.61;32.87;94489.94;4965738;28;7476;-62
2022/08/11 02:50:11;;;;;;;;;;;;;;;27.62;32.56;94485.91;4968331;28;9141;-62
2022/08/11 02:53:16;;;;;;;;;;;;;;;27.60;32.55;94493.97;4905786;29;6862;-62
2022/08/11 02:59:50;;;;;;;;;;;;;;;27.59;32.51;94491.75;4864593;29;9565;-63
2022/08/11 03:03:08;;;;;;;;;;;;;;;27.56;32.59;94492.78;4859627;29;9107;-63
2022/08/11 03:06:03;;;;;;;;;;;;;;;27.54;32.52;94490.53;4877219;29;7058;-62
2022/08/11 03:08:51;;;;;;;;;;;;;;;27.55;32.08;94497.56;4880657;29;9231;-62
2022/08/11 03:17:32;;;;;;;;;;;;;;;27.50;32.33;94492.84;4885584;29;9055;-62
2022/08/11 03:20:56;;;;;;;;;;;;;;;27.49;32.09;94496.88;4876787;29;9136;-62
2022/08/11 03:23:33;;;;;;;;;;;;;;;27.47;32.42;94499.41;4885612;29;7418;-62
2022/08/11 03:26:23;;;;;;;;;;;;;;;27.47;32.85;94496.66;4886381;29;7039;-62
2022/08/11 03:29:27;;;;;;;;;;;;;;;27.45;32.72;94495.66;4942586;28;7000;-62
2022/08/11 03:32:00;;;;;;;;;;;;;;;27.44;32.49;94497.69;4984205;28;7326;-62
2022/08/11 03:34:30;;;;;;;;;;;;;;;27.44;32.62;94496.94;5042783;28;6995;-62
2022/08/11 03:37:49;;;;;;;;;;;;;;;27.42;32.50;94489.19;5028489;28;7368;-62
2022/08/11 03:43:41;;;;;;;;;;;;;;;27.40;32.75;94485.44;4964160;28;7268;-62
2022/08/11 03:46:56;;;;;;;;;;;;;;;27.39;32.02;94492.22;4953363;28;9077;-62
2022/08/11 03:49:55;;;;;;;;;;;;;;;27.38;32.31;94488.00;4890933;29;7310;-62
2022/08/11 03:53:13;;;;;;;;;;;;;;;27.36;32.43;94496.06;4884595;29;7056;-62
2022/08/11 03:56:23;;;;;;;;;;;;;;;27.35;32.22;94491.75;4889076;29;7639;-62
2022/08/11 04:03:12;;;;;;;;;;;;;;;27.31;32.54;94491.28;4819934;29;7041;-62
2022/08/11 04:06:31;;;;;;;;;;;;;;;27.29;32.39;94496.59;4820109;29;9360;-62
2022/08/11 04:09:50;;;;;;;;;;;;;;;27.29;31.92;94488.31;4819635;29;8874;-62
2022/08/11 04:12:24;;;;;;;;;;;;;;;27.25;32.41;94494.09;4820973;29;9644;-62
2022/08/11 04:18:53;;;;;;;;;;;;;;;27.24;32.72;94495.38;4852189;29;7258;-63
2022/08/11 04:21:56;;;;;;;;;;;;;;;27.20;34.03;94494.94;4850253;29;7177;-62
2022/08/11 04:24:46;;;;;;;;;;;;;;;27.19;33.69;94493.44;4829124;29;7271;-62
2022/08/11 04:27:33;;;;;;;;;;;;;;;27.19;33.91;94490.66;4864374;29;7246;-62
2022/08/11 04:30:26;;;;;;;;;;;;;;;27.19;33.46;94487.91;4863247;29;8704;-62
2022/08/11 04:32:58;;;;;;;;;;;;;;;27.20;33.68;94494.19;4853235;29;8367;-62
2022/08/11 04:35:46;;;;;;;;;;;;;;;27.20;33.01;94503.22;4862857;29;8413;-62
2022/08/11 04:38:33;;;;;;;;;;;;;;;27.21;33.05;94504.69;4941367;28;7413;-62
2022/08/11 04:43:19;;;;;;;;;;;;;;;27.23;33.45;94498.69;4956421;28;7357;-62
2022/08/11 04:45:00;;;;;;;;;;;;;;;27.23;33.49;94499.41;4953743;28;7078;-62
2022/08/11 05:03:45;;;;;;;;;;;;;;;27.20;33.85;94502.47;5040820;28;7270;-62
2022/08/11 05:06:56;;;;;;;;;;;;;;;27.18;33.27;94500.22;5026849;28;8217;-62
2022/08/11 05:09:34;;;;;;;;;;;;;;;27.22;33.83;94502.69;5038934;28;7389;-62
2022/08/11 05:12:39;;;;;;;;;;;;;;;27.22;33.80;94508.97;5043010;28;7433;-62
2022/08/11 05:36:16;;;;;;;;;;;;;;;27.24;33.68;94511.97;5038103;28;7264;-62
2022/08/11 05:56:23;;;;;;;;;;;;;;;27.26;34.86;94517.72;5039650;28;9043;-63
2022/08/11 05:58:58;;;;;;;;;;;;;;;27.29;34.92;94524.97;5026645;28;7003;-63
2022/08/11 06:01:33;;;;;;;;;;;;;;;27.29;34.78;94524.97;5021559;28;9037;-63
2022/08/11 06:04:15;;;;;;;;;;;;;;;27.30;35.18;94529.22;5022425;28;7257;-63
2022/08/11 06:07:08;;;;;;;;;;;;;;;27.33;34.64;94530.19;5021818;28;7411;-63
2022/08/11 06:10:08;;;;;;;;;;;;;;;27.34;34.92;94528.94;5036214;28;9065;-63
2022/08/11 06:12:52;;;;;;;;;;;;;;;27.32;34.78;94529.44;4942132;28;7142;-62
2022/08/11 06:15:45;;;;;;;;;;;;;;;27.31;34.55;94522.44;4943090;28;7237;-63
2022/08/11 06:18:26;;;;;;;;;;;;;;;27.32;35.01;94532.19;4957801;28;7173;-62
2022/08/11 06:21:20;;;;;;;;;;;;;;;27.35;35.19;94541.47;4943970;28;7529;-62
2022/08/11 06:23:50;;;;;;;;;;;;;;;27.37;34.63;94534.19;4948479;28;7231;-62
2022/08/11 06:26:19;;;;;;;;;;;;;;;27.36;35.54;94532.69;4943354;28;7120;-62
2022/08/11 06:28:48;;;;;;;;;;;;;;;27.37;35.77;94533.44;4943928;28;8743;-62
2022/08/11 06:31:23;;;;;;;;;;;;;;;27.36;35.39;94527.16;4947340;28;7255;-63
2022/08/11 06:34:09;;;;;;;;;;;;;;;27.34;35.61;94535.19;4940158;28;7496;-63
2022/08/11 06:37:07;;;;;;;;;;;;;;;27.34;36.48;94532.44;4956857;28;9100;-62
2022/08/11 06:39:43;;;;;;;;;;;;;;;27.37;36.12;94541.72;4940223;28;7265;-63
2022/08/11 06:42:27;;;;;;;;;;;;;;;27.38;36.41;94538.44;4941743;28;7691;-62
2022/08/11 06:45:48;;;;;;;;;;;;;;;27.38;35.63;94532.91;4950691;28;7017;-62
2022/08/11 06:48:24;;;;;;;;;;;;;;;27.38;35.59;94543.22;4926147;28;9077;-62
2022/08/11 06:51:10;;;;;;;;;;;;;;;27.38;35.73;94534.94;4943932;28;7071;-62
2022/08/11 06:53:49;;;;;;;;;;;;;;;27.37;35.66;94536.94;4947834;28;6860;-62
2022/08/11 07:03:02;;;;;;;;;;;;;;;27.35;35.74;94533.97;4969086;28;8716;-62
2022/08/11 07:05:42;;;;;;;;;;;;;;;27.36;35.47;94529.91;4953646;28;9675;-62
2022/08/11 07:15:42;;;;;;;;;;;;;;;27.34;36.08;94535.19;4969425;28;7282;-64
2022/08/11 07:30:09;;;;;;;;;;;;;;;27.36;36.75;94532.69;5040557;28;8741;-63
2022/08/11 07:33:01;;;;;;;;;;;;;;;27.39;36.27;94541.94;5023177;28;7127;-63
2022/08/11 07:35:34;;;;;;;;;;;;;;;27.39;36.06;94534.41;5023643;28;7566;-62
2022/08/11 07:38:43;;;;;;;;;;;;;;;27.39;35.96;94533.66;5028579;28;7447;-62
2022/08/11 07:41:18;;;;;;;;;;;;;;;27.39;36.94;94533.66;5015976;28;8753;-62
2022/08/11 07:43:51;;;;;;;;;;;;;;;27.40;36.60;94530.41;5021391;28;8775;-62
2022/08/11 07:54:47;;;;;;;;;;;;;;;27.46;36.58;94517.25;5041313;28;7138;-63
2022/08/11 08:19:23;;;;;;;;;;;;;;;27.55;36.64;94530.72;5034628;28;9354;-62
2022/08/11 08:21:50;;;;;;;;;;;;;;;27.57;36.42;94538.47;5018689;28;8377;-63
2022/08/11 08:24:20;;;;;;;;;;;;;;;27.56;36.49;94543.25;5023791;28;6999;-62
2022/08/11 08:26:57;;;;;;;;;;;;;;;27.55;36.66;94529.97;5034144;28;7161;-62
2022/08/11 08:32:15;;;;;;;;;;;;;;;27.58;36.88;94535.19;5033774;28;6981;-62
2022/08/11 08:34:44;;;;;;;;;;;;;;;27.60;36.62;94543.72;5035642;28;7153;-63
2022/08/11 08:37:12;;;;;;;;;;;;;;;27.61;36.78;94547.22;5014344;28;7013;-62
2022/08/11 08:39:39;;;;;;;;;;;;;;;27.60;36.47;94543.72;5017130;28;6962;-62
2022/08/11 08:42:25;;;;;;;;;;;;;;;27.62;36.86;94549.47;5014727;28;6987;-62
2022/08/11 08:45:02;;;;;;;;;;;;;;;27.63;36.75;94552.97;5032134;28;7143;-62
2022/08/11 08:47:35;;;;;;;;;;;;;;;27.64;37.15;94543.44;5017525;28;7093;-62
2022/08/11 08:50:08;;;;;;;;;;;;;;;27.66;36.43;94554.72;5014555;28;7228;-62
2022/08/11 08:52:41;;;;;;;;;;;;;;;27.64;36.87;94546.19;5016679;28;9075;-62
2022/08/11 08:55:15;;;;;;;;;;;;;;;27.64;36.34;94557.97;5032559;28;7391;-63
2022/08/11 08:57:44;;;;;;;;;;;;;;;27.63;36.85;94550.97;5017086;28;8831;-62
2022/08/11 09:00:14;;;;;;;;;;;;;;;27.63;36.88;94559.25;5016029;28;9056;-63
2022/08/11 09:02:45;;;;;;;;;;;;;;;27.63;37.12;94559.25;5017593;28;9449;-62
2022/08/11 09:05:17;;;;;;;;;;;;;;;27.63;37.36;94553.72;5037356;28;7246;-63
2022/08/11 09:07:49;;;;;;;;;;;;;;;27.66;37.30;94551.19;5017322;28;7709;-63
2022/08/11 09:10:19;;;;;;;;;;;;;;;27.63;37.00;94541.94;5018892;28;7390;-62
2022/08/11 09:12:47;;;;;;;;;;;;;;;27.63;36.96;94552.97;5022496;28;8720;-62
2022/08/11 09:15:16;;;;;;;;;;;;;;;27.61;36.74;94550.75;5035057;28;9485;-62
2022/08/11 09:18:04;;;;;;;;;;;;;;;27.62;36.59;94546.69;5019102;28;9224;-63
2022/08/11 09:20:37;;;;;;;;;;;;;;;27.63;36.37;94548.22;5033122;28;7128;-62
2022/08/11 09:28:50;;;;;;;;;;;;;;;27.69;36.53;94544.63;5033006;28;7294;-62
2022/08/11 09:31:20;;;;;;;;;;;;;;;27.71;36.13;94542.81;5021552;28;9123;-62
2022/08/11 09:33:50;;;;;;;;;;;;;;;27.71;36.46;94544.84;5017050;28;7291;-61
2022/08/11 09:41:53;;;;;;;;;;;;;;;27.70;36.73;94537.81;5025334;28;7268;-62
2022/08/11 09:47:39;;;;;;;;;;;;;;;27.71;36.95;94539.34;5041102;28;7000;-62
2022/08/11 09:50:08;;;;;;;;;;;;;;;27.71;36.51;94539.34;5030963;28;7270;-62
2022/08/11 09:52:44;;;;;;;;;;;;;;;27.73;36.46;94536.78;5038650;28;7347;-62
2022/08/11 09:55:27;;;;;;;;;;;;;;;27.77;36.63;94538.00;5039305;28;7146;-62
2022/08/11 09:58:18;;;;;;;;;;;;;;;27.82;36.84;94533.66;5041739;28;9099;-62
2022/08/11 10:00:52;;;;;;;;;;;;;;;27.86;36.55;94536.88;5027184;28;7283;-62
2022/08/11 10:03:23;;;;;;;;;;;;;;;27.87;36.85;94533.59;5035088;28;7084;-62
2022/08/11 10:08:48;;;;;;;;;;;;;;;27.82;37.10;94531.63;5035793;28;7575;-62
2022/08/11 10:11:20;;;;;;;;;;;;;;;27.82;36.56;94528.88;5018435;28;9164;-62
2022/08/11 10:16:40;;;;;;;;;;;;;;;27.77;37.53;94524.19;5034712;28;7044;-62
2022/08/11 10:19:09;;;;;;;;;;;;;;;27.79;37.20;94529.16;5019090;28;7047;-62
2022/08/11 10:27:18;;;;;;;;;;;;;;;27.82;36.76;94515.03;5032986;28;9096;-62
2022/08/11 10:35:24;;;;;;;;;;;;;;;27.81;37.25;94518.34;4915679;29;7268;-62
2022/08/11 10:37:53;;;;;;;;;;;;;;;27.81;36.98;94518.34;4916211;29;7042;-62
2022/08/11 10:40:22;;;;;;;;;;;;;;;27.80;37.17;94520.34;4899028;29;6969;-62
2022/08/11 10:43:01;;;;;;;;;;;;;;;27.81;37.06;94523.88;4904030;29;7236;-62
2022/08/11 10:48:19;;;;;;;;;;;;;;;27.81;37.49;94516.34;4914651;29;7229;-62
2022/08/11 10:51:13;;;;;;;;;;;;;;;27.81;37.53;94518.34;4917336;29;8095;-62
2022/08/11 11:00:05;;;;;;;;;;;;;;;27.85;36.84;94514.00;4922084;29;7472;-62
2022/08/11 11:02:33;;;;;;;;;;;;;;;27.87;36.88;94516.25;4923504;29;7415;-62
2022/08/11 11:05:15;;;;;;;;;;;;;;;27.90;37.00;94510.44;4914746;29;7470;-63
2022/08/11 11:07:53;;;;;;;;;;;;;;;27.92;37.05;94515.44;4925480;29;7188;-62
2022/08/11 11:10:40;;;;;;;;;;;;;;;27.92;37.06;94507.88;4910239;29;7007;-63
2022/08/11 11:18:38;;;;;;;;;;;;;;;27.94;36.71;94510.13;5037003;28;6941;-62
2022/08/11 11:21:36;;;;;;;;;;;;;;;27.94;37.08;94510.88;5020089;28;7503;-62
2022/08/11 11:24:21;;;;;;;;;;;;;;;27.96;37.06;94513.09;5022453;28;9041;-62
2022/08/11 11:27:03;;;;;;;;;;;;;;;27.96;37.16;94513.09;5036012;28;7207;-62
2022/08/11 11:30:06;;;;;;;;;;;;;;;27.98;37.16;94513.34;5019418;28;9089;-62
2022/08/11 11:32:41;;;;;;;;;;;;;;;27.97;37.23;94517.38;5017491;28;7096;-62
2022/08/11 11:35:16;;;;;;;;;;;;;;;27.98;37.38;94518.88;5018068;28;8813;-62
2022/08/11 11:37:49;;;;;;;;;;;;;;;27.97;37.31;94515.38;5026843;28;9299;-63
2022/08/11 11:40:22;;;;;;;;;;;;;;;28.00;37.26;94508.81;5022329;28;9211;-62
2022/08/11 11:42:55;;;;;;;;;;;;;;;28.01;37.27;94504.03;5030032;28;7025;-62
2022/08/11 11:45:33;;;;;;;;;;;;;;;28.03;37.16;94509.78;5042206;28;9168;-62
2022/08/11 11:48:03;;;;;;;;;;;;;;;28.04;37.21;94505.72;5029175;28;7146;-62
2022/08/11 11:50:34;;;;;;;;;;;;;;;28.03;37.24;94505.00;5040770;28;8727;-61
2022/08/11 11:53:22;;;;;;;;;;;;;;;28.04;37.24;94500.19;5016437;28;9438;-62
2022/08/11 11:55:53;;;;;;;;;;;;;;;28.02;37.59;94495.19;5036959;28;9197;-62
2022/08/11 12:01:24;;;;;;;;;;;;;;;28.08;37.31;94489.56;5040849;28;7428;-62
2022/08/11 12:03:54;;;;;;;;;;;;;;;28.09;37.56;94482.78;5031706;28;7444;-62
2022/08/11 12:06:24;;;;;;;;;;;;;;;28.12;37.47;94484.50;5026104;28;7070;-62
2022/08/11 12:09:01;;;;;;;;;;;;;;;28.10;37.22;94482.25;5021822;28;9116;-62
2022/08/11 12:15:03;;;;;;;;;;;;;;;28.14;37.60;94487.50;5040259;28;7233;-62
2022/08/11 12:17:37;;;;;;;;;;;;;;;28.14;37.71;94487.50;5028417;28;7284;-62
2022/08/11 12:20:10;;;;;;;;;;;;;;;28.14;37.67;94485.47;5030129;28;6957;-62
2022/08/11 12:28:50;;;;;;;;;;;;;;;28.17;37.75;94467.81;5041297;28;7025;-62
2022/08/11 12:31:28;;;;;;;;;;;;;;;28.18;37.65;94466.56;5023852;28;8076;-62
2022/08/11 12:34:05;;;;;;;;;;;;;;;28.17;37.89;94467.81;5024697;28;7522;-62
2022/08/11 12:36:36;;;;;;;;;;;;;;;28.17;37.52;94462.28;5023104;28;7628;-62
2022/08/11 12:39:07;;;;;;;;;;;;;;;28.18;37.66;94458.25;5025670;28;9302;-62
2022/08/11 12:47:17;;;;;;;;;;;;;;;28.21;38.08;94451.66;5040571;28;8788;-62
2022/08/11 12:52:56;;;;;;;;;;;;;;;28.22;37.75;94444.13;5039390;28;7236;-62
2022/08/11 12:58:29;;;;;;;;;;;;;;;28.24;37.73;94444.34;5041191;28;9393;-62
2022/08/11 13:06:45;;;;;;;;;;;;;;;28.28;37.86;94442.00;5037957;28;6985;-63
2022/08/11 13:09:13;;;;;;;;;;;;;;;28.29;37.64;94432.44;5040768;28;7482;-62
2022/08/11 13:14:33;;;;;;;;;;;;;;;28.33;37.77;94430.13;5039311;28;7039;-62
2022/08/11 13:17:21;;;;;;;;;;;;;;;28.35;37.79;94416.50;5031171;28;7026;-62
2022/08/11 13:20:18;;;;;;;;;;;;;;;28.36;37.72;94415.22;5022129;28;9075;-62
2022/08/11 13:22:51;;;;;;;;;;;;;;;28.35;37.96;94417.25;4963323;28;9093;-61
2022/08/11 13:25:23;;;;;;;;;;;;;;;28.38;37.96;94415.44;4986879;28;7260;-63
2022/08/11 13:28:01;;;;;;;;;;;;;;;28.39;37.78;94403.09;4965710;28;7203;-62
2022/08/11 13:33:18;;;;;;;;;;;;;;;28.43;37.58;94408.34;4972947;28;7192;-61
2022/08/11 13:35:52;;;;;;;;;;;;;;;28.42;37.79;94407.59;4987835;28;8826;-62
2022/08/11 13:38:21;;;;;;;;;;;;;;;28.44;37.72;94407.03;4985688;28;8766;-62
2022/08/11 13:40:50;;;;;;;;;;;;;;;28.44;37.71;94402.25;4963607;28;7780;-62
2022/08/11 13:43:22;;;;;;;;;;;;;;;28.45;37.85;94398.22;4965819;28;7102;-62
2022/08/11 13:46:17;;;;;;;;;;;;;;;28.49;37.61;94400.69;4968221;28;7173;-62
2022/08/11 13:48:41;;;;;;;;;;;;;;;28.49;37.89;94395.13;4982010;28;7017;-63
2022/08/11 13:51:32;;;;;;;;;;;;;;;28.50;37.50;94391.84;4954338;28;7013;-63
2022/08/11 13:54:17;;;;;;;;;;;;;;;28.51;37.47;94390.56;4985995;28;8745;-63
2022/08/11 13:56:48;;;;;;;;;;;;;;;28.52;37.99;94392.06;4970508;28;7132;-62
2022/08/11 13:59:24;;;;;;;;;;;;;;;28.54;37.65;94389.50;4991224;28;7613;-62
2022/08/11 14:02:03;;;;;;;;;;;;;;;28.55;37.66;94379.94;5018901;28;9071;-62
2022/08/11 14:05:01;;;;;;;;;;;;;;;28.55;37.38;94379.94;5035518;28;9834;-62
2022/08/11 14:07:36;;;;;;;;;;;;;;;28.58;37.60;94381.66;5015163;28;7121;-62
2022/08/11 14:10:09;;;;;;;;;;;;;;;28.57;37.64;94376.63;5032717;28;7287;-63
2022/08/11 14:15:27;;;;;;;;;;;;;;;28.62;37.38;94384.13;5035177;28;8896;-62
2022/08/11 14:18:07;;;;;;;;;;;;;;;28.63;37.63;94380.06;5015336;28;7062;-62
2022/08/11 14:23:44;;;;;;;;;;;;;;;28.65;37.70;94372.72;5033811;28;6994;-62
2022/08/11 14:26:25;;;;;;;;;;;;;;;28.67;37.88;94370.16;5012855;28;8933;-62
2022/08/11 14:28:56;;;;;;;;;;;;;;;28.67;37.62;94369.41;5033042;28;7290;-63
2022/08/11 14:31:28;;;;;;;;;;;;;;;28.66;37.47;94365.91;5015471;28;7261;-62
2022/08/11 14:33:56;;;;;;;;;;;;;;;28.70;37.49;94371.13;5015316;28;9551;-63
2022/08/11 14:36:25;;;;;;;;;;;;;;;28.71;37.50;94364.31;5034302;28;9128;-63
2022/08/11 14:38:53;;;;;;;;;;;;;;;28.71;37.26;94365.06;5036639;28;8884;-62
2022/08/11 14:47:29;;;;;;;;;;;;;;;28.76;37.47;94355.16;5041034;28;7628;-63
2022/08/11 14:50:16;;;;;;;;;;;;;;;28.76;37.89;94355.91;5022501;28;7030;-63
2022/08/11 14:53:14;;;;;;;;;;;;;;;28.80;37.59;94356.31;5028174;28;9560;-63
2022/08/11 14:58:46;;;;;;;;;;;;;;;28.82;37.39;94353.00;5042540;28;7029;-62
2022/08/11 15:04:12;;;;;;;;;;;;;;;28.85;37.40;94347.16;5033245;28;9091;-62
2022/08/11 15:06:52;;;;;;;;;;;;;;;28.87;37.75;94360.47;5018800;28;7225;-62
2022/08/11 15:09:20;;;;;;;;;;;;;;;28.88;38.06;94357.16;5037286;28;7474;-62
2022/08/11 15:12:08;;;;;;;;;;;;;;;28.88;37.43;94346.09;5021356;28;7258;-63
2022/08/11 15:17:24;;;;;;;;;;;;;;;28.90;37.64;94348.34;5040381;28;7131;-62
2022/08/11 15:25:29;;;;;;;;;;;;;;;28.93;37.25;94352.78;5043629;28;7267;-62
2022/08/11 15:37:25;;;;;;;;;;;;;;;28.99;36.73;94334.78;4980821;28;7527;-62
2022/08/11 15:46:21;;;;;;;;;;;;;;;29.04;37.07;94333.94;4986676;28;9022;-62
2022/08/11 15:48:56;;;;;;;;;;;;;;;29.05;36.88;94327.13;4909567;29;7207;-61
2022/08/11 15:51:41;;;;;;;;;;;;;;;29.07;37.34;94330.09;4909765;29;8937;-61
2022/08/11 15:54:19;;;;;;;;;;;;;;;29.08;36.96;94323.28;4910017;29;6863;-62
2022/08/11 15:56:51;;;;;;;;;;;;;;;29.08;36.80;94323.28;4892333;29;9414;-61
2022/08/11 16:05:36;;;;;;;;;;;;;;;29.13;37.12;94316.13;4909287;29;7267;-62
2022/08/11 16:08:04;;;;;;;;;;;;;;;29.15;37.36;94326.66;4893543;29;7229;-61
2022/08/11 16:10:51;;;;;;;;;;;;;;;29.18;37.42;94325.63;4889538;29;7207;-61
2022/08/11 16:16:13;;;;;;;;;;;;;;;29.18;37.12;94303.47;4907531;29;8969;-61
2022/08/11 16:18:57;;;;;;;;;;;;;;;29.19;36.91;94302.22;4916025;28;9478;-61
2022/08/11 16:21:38;;;;;;;;;;;;;;;29.20;37.41;94309.22;4983764;28;8774;-61
2022/08/11 16:24:11;;;;;;;;;;;;;;;29.22;37.34;94309.44;4981794;28;7124;-62
2022/08/11 16:26:42;;;;;;;;;;;;;;;29.21;37.08;94303.13;4971315;28;7061;-62
2022/08/11 16:29:23;;;;;;;;;;;;;;;29.24;37.81;94304.09;4963063;28;7203;-62
2022/08/11 16:32:16;;;;;;;;;;;;;;;29.23;37.79;94292.25;4980716;28;9051;-62
2022/08/11 16:40:28;;;;;;;;;;;;;;;29.28;37.02;94287.88;4976280;28;7317;-62
2022/08/11 16:48:33;;;;;;;;;;;;;;;29.36;37.55;94288.72;5032646;28;7239;-61
2022/08/11 16:50:59;;;;;;;;;;;;;;;29.37;37.32;94284.66;5033422;28;8961;-61
2022/08/11 16:53:29;;;;;;;;;;;;;;;29.39;37.24;94282.09;5019336;28;7282;-61
2022/08/11 16:56:02;;;;;;;;;;;;;;;29.41;37.01;94287.84;5004091;28;9523;-61
2022/08/11 17:01:40;;;;;;;;;;;;;;;29.40;37.63;94281.56;5036322;28;9101;-61
2022/08/11 17:14:11;;;;;;;;;;;;;;;29.45;36.97;94286.22;5035006;28;7258;-62
2022/08/11 17:16:51;;;;;;;;;;;;;;;29.44;37.17;94279.19;5041943;28;8983;-61
2022/08/11 17:19:45;;;;;;;;;;;;;;;29.46;37.79;94281.44;5037734;28;8970;-61
2022/08/11 17:25:35;;;;;;;;;;;;;;;29.48;37.28;94282.38;5032465;28;7058;-61
2022/08/11 17:28:14;;;;;;;;;;;;;;;29.49;37.25;94285.91;4930568;29;7162;-62
2022/08/11 17:36:43;;;;;;;;;;;;;;;29.48;38.08;94279.59;4931557;29;9051;-61
2022/08/11 17:39:11;;;;;;;;;;;;;;;29.50;37.93;94279.06;4916137;29;8971;-61
2022/08/11 17:50:35;;;;;;;;;;;;;;;29.47;37.44;94282.94;4931347;28;7268;-61
2022/08/11 18:05:32;;;;;;;;;;;;;;;29.43;37.33;94285.25;4895528;29;10474;-62
